Time;durP1;ratioP1;P1;durP2;ratioP2;P2;SDS_P1;SDS_P2;PMS_P1;PMS_P2;Temp;Humidity;BMP_temperature;BMP_pressure;BME280_temperature;BME280_humidity;BME280_pressure;Samples;Min_cycle;Max_cycle;Signal;HPM_P1;HPM_P2
2022/01/28 00:04:45;;;;;;;22.95;11.40;;;0.50;99.20;;;;;;5012969;28;19945;-72
2022/01/28 00:07:10;;;;;;;19.55;9.93;;;0.50;99.40;;;;;;5013843;28;20029;-72
2022/01/28 00:09:36;;;;;;;21.73;10.18;;;0.60;99.00;;;;;;5013455;28;20503;-72
2022/01/28 00:12:02;;;;;;;20.95;10.93;;;0.60;98.90;;;;;;5013833;28;20034;-72
2022/01/28 00:14:36;;;;;;;28.55;12.52;;;0.70;99.00;;;;;;5012941;28;20489;-72
2022/01/28 00:38:49;;;;;;;27.77;14.27;;;0.30;99.90;;;;;;5040174;28;20096;-72
2022/01/28 00:41:15;;;;;;;26.30;12.48;;;0.30;99.90;;;;;;5013528;28;20030;-72
2022/01/28 00:43:42;;;;;;;30.23;14.32;;;0.30;99.90;;;;;;5013916;28;20392;-71
2022/01/28 00:46:08;;;;;;;28.13;13.35;;;0.40;99.90;;;;;;5011871;28;20030;-72
2022/01/28 00:48:33;;;;;;;25.50;13.55;;;0.50;99.90;;;;;;5013617;28;20033;-72
2022/01/28 00:50:59;;;;;;;24.42;11.40;;;0.50;99.90;;;;;;5012778;28;20088;-71
2022/01/28 00:53:25;;;;;;;19.85;10.18;;;0.40;99.70;;;;;;5012366;28;20488;-72
2022/01/28 00:55:54;;;;;;;21.23;9.02;;;0.50;99.10;;;;;;5011384;28;20045;-71
2022/01/28 00:58:22;;;;;;;18.40;10.57;;;0.60;98.50;;;;;;5013409;28;20034;-72
2022/01/28 01:00:48;;;;;;;27.52;14.68;;;0.50;98.60;;;;;;5012193;28;20045;-71
2022/01/28 01:03:14;;;;;;;33.47;15.10;;;0.30;99.90;;;;;;5013517;28;20030;-72
2022/01/28 01:05:39;;;;;;;23.63;13.63;;;0.30;99.90;;;;;;5011772;28;20128;-72
2022/01/28 01:08:06;;;;;;;21.17;10.48;;;0.40;99.90;;;;;;5010538;28;20037;-71
2022/01/28 01:10:33;;;;;;;21.65;9.98;;;0.20;99.90;;;;;;5012931;28;20034;-72
2022/01/28 01:12:59;;;;;;;25.50;11.60;;;0.20;99.70;;;;;;5012816;28;20026;-72
2022/01/28 01:15:31;;;;;;;18.73;9.43;;;0.30;99.10;;;;;;5012228;28;20032;-72
2022/01/28 01:18:08;;;;;;;26.27;10.32;;;0.10;99.00;;;;;;5011629;28;20088;-72
2022/01/28 01:20:51;;;;;;;33.80;13.70;;;0.00;99.70;;;;;;5012135;28;20109;-72
2022/01/28 01:23:26;;;;;;;25.63;13.23;;;-0.20;99.90;;;;;;5012782;28;20116;-72
2022/01/28 01:25:56;;;;;;;27.05;11.73;;;-0.30;99.90;;;;;;5012354;28;20046;-71
2022/01/28 01:28:28;;;;;;;22.33;11.10;;;-0.20;99.90;;;;;;5012456;28;20419;-71
2022/01/28 01:30:56;;;;;;;23.15;10.02;;;0.20;99.80;;;;;;5012007;28;20131;-72
2022/01/28 01:33:22;;;;;;;18.50;10.18;;;0.40;99.00;;;;;;5012514;28;20025;-72
2022/01/28 01:35:47;;;;;;;17.85;9.85;;;0.50;98.50;;;;;;5012159;28;20053;-71
2022/01/28 01:38:13;;;;;;;15.75;7.85;;;0.40;98.70;;;;;;5011944;28;20502;-72
2022/01/28 01:40:46;;;;;;;20.70;9.40;;;0.70;97.60;;;;;;5011980;28;20037;-72
2022/01/28 01:43:35;;;;;;;24.65;12.90;;;1.00;97.20;;;;;;5012660;28;20037;-71
2022/01/28 01:54:01;;;;;;;25.45;10.85;;;0.60;98.30;;;;;;5011345;28;20160;-72
2022/01/28 01:56:28;;;;;;;26.25;10.77;;;0.40;98.90;;;;;;5009329;28;20017;-71
2022/01/28 01:58:55;;;;;;;23.92;11.18;;;0.10;99.40;;;;;;5011627;28;20056;-71
2022/01/28 02:01:20;;;;;;;26.60;11.98;;;0.00;99.90;;;;;;5012244;28;20033;-71
2022/01/28 02:03:47;;;;;;;17.83;9.05;;;0.00;99.70;;;;;;5011330;28;20034;-72
2022/01/28 02:06:17;;;;;;;23.55;10.77;;;0.10;99.50;;;;;;5011300;28;20029;-72
2022/01/28 02:08:44;;;;;;;21.15;10.27;;;0.20;99.40;;;;;;5010869;28;20392;-71
2022/01/28 02:11:09;;;;;;;20.58;9.25;;;0.30;98.30;;;;;;5011161;28;20484;-71
2022/01/28 02:13:37;;;;;;;18.33;8.77;;;0.50;98.10;;;;;;5010695;28;20068;-71
2022/01/28 02:16:04;;;;;;;17.13;8.90;;;0.40;98.20;;;;;;5010902;28;20061;-71
2022/01/28 02:18:30;;;;;;;22.98;10.50;;;0.30;98.20;;;;;;5012060;28;20040;-71
2022/01/28 02:21:03;;;;;;;23.27;10.23;;;0.40;98.30;;;;;;5011383;28;20038;-71
2022/01/28 02:23:29;;;;;;;20.53;8.83;;;0.30;98.00;;;;;;5011926;28;20040;-71
2022/01/28 02:25:57;;;;;;;19.20;9.63;;;0.20;98.00;;;;;;5011434;28;20407;-71
2022/01/28 02:28:24;;;;;;;20.30;11.27;;;0.20;98.50;;;;;;5011525;28;20026;-71
2022/01/28 02:30:51;;;;;;;26.45;11.35;;;0.50;98.50;;;;;;5011209;28;20038;-71
2022/01/28 02:33:19;;;;;;;20.48;8.82;;;0.50;98.40;;;;;;5012326;28;20068;-71
2022/01/28 02:35:47;;;;;;;20.15;9.85;;;0.40;98.30;;;;;;5011465;28;20108;-71
2022/01/28 02:38:15;;;;;;;19.42;9.50;;;0.40;98.50;;;;;;5009662;28;20033;-72
2022/01/28 02:40:43;;;;;;;20.63;10.60;;;0.40;98.40;;;;;;5010764;28;20033;-71
2022/01/28 02:43:30;;;;;;;22.92;11.25;;;0.30;98.60;;;;;;5012270;28;20121;-71
2022/01/28 02:46:03;;;;;;;26.55;13.10;;;0.20;99.20;;;;;;5011118;28;20045;-71
2022/01/28 02:48:30;;;;;;;24.17;12.40;;;-0.30;99.90;;;;;;5011144;28;20030;-71
2022/01/28 02:53:38;;;;;;;28.23;12.63;;;-0.10;99.90;;;;;;5011905;28;20124;-72
2022/01/28 02:56:12;;;;;;;29.50;14.30;;;0.10;99.90;;;;;;5009207;28;20026;-72
2022/01/28 02:58:38;;;;;;;;;;;0.20;99.90;;;;;;5010995;28;20491;-71
2022/01/28 03:01:04;;;;;;;21.52;11.52;;;-0.10;99.90;;;;;;5011085;28;19910;-71
2022/01/28 03:03:30;;;;;;;28.05;12.82;;;-0.40;99.90;;;;;;5011267;28;20117;-71
2022/01/28 03:05:56;;;;;;;20.38;10.02;;;-0.40;99.90;;;;;;5010118;28;20459;-72
2022/01/28 03:08:25;;;;;;;26.13;10.25;;;-0.60;99.90;;;;;;5010932;28;20033;-71
2022/01/28 03:13:58;;;;;;;24.73;12.15;;;0.30;99.50;;;;;;5006587;28;20045;-71
2022/01/28 03:16:22;;;;;;;23.52;12.10;;;0.10;99.90;;;;;;5011213;28;20104;-71
2022/01/28 03:18:52;;;;;;;30.85;12.85;;;0.00;99.90;;;;;;5010675;28;20029;-71
2022/01/28 03:21:23;;;;;;;24.67;12.88;;;-0.20;99.90;;;;;;5010595;28;20026;-72
2022/01/28 03:23:49;;;;;;;21.88;11.65;;;-0.20;99.90;;;;;;5013253;28;20480;-72
2022/01/28 03:26:16;;;;;;;26.55;11.00;;;-0.30;99.90;;;;;;5015086;28;20038;-71
2022/01/28 03:28:41;;;;;;;20.08;10.43;;;-0.20;99.90;;;;;;5013684;28;20535;-72
2022/01/28 03:31:07;;;;;;;24.10;10.88;;;0.00;99.90;;;;;;5014304;28;20109;-71
2022/01/28 03:33:34;;;;;;;22.50;10.48;;;-0.10;99.90;;;;;;5014784;28;20018;-71
2022/01/28 03:36:02;;;;;;;23.92;11.32;;;-0.20;99.90;;;;;;5014132;28;20036;-71
2022/01/28 03:38:28;;;;;;;22.13;11.77;;;-0.20;99.90;;;;;;5013540;28;20411;-71
2022/01/28 03:40:56;;;;;;;19.80;10.75;;;-0.30;99.90;;;;;;5013843;28;20022;-71
2022/01/28 03:43:22;;;;;;;21.55;11.20;;;-0.30;99.90;;;;;;5014116;28;20400;-71
2022/01/28 03:45:47;;;;;;;21.55;11.55;;;-0.50;99.90;;;;;;5013896;28;20069;-71
2022/01/28 03:48:13;;;;;;;21.02;10.77;;;-0.30;99.90;;;;;;5013838;28;20076;-71
2022/01/28 03:50:39;;;;;;;25.27;10.10;;;-0.30;99.90;;;;;;5014855;28;20083;-72
2022/01/28 03:53:06;;;;;;;19.92;9.90;;;-0.20;99.90;;;;;;5013032;28;20536;-71
2022/01/28 03:55:33;;;;;;;23.58;11.43;;;-0.40;99.90;;;;;;5013842;28;20045;-72
2022/01/28 03:57:58;;;;;;;19.88;11.43;;;-0.20;99.90;;;;;;5013018;28;20603;-71
2022/01/28 04:00:27;;;;;;;30.63;12.05;;;-0.10;99.90;;;;;;5006275;28;20117;-71
2022/01/28 04:03:10;;;;;;;20.02;11.35;;;-0.40;99.90;;;;;;5006688;28;20061;-70
2022/01/28 04:13:32;;;;;;;19.63;8.70;;;-0.40;99.90;;;;;;5008794;28;20076;-70
2022/01/28 04:18:42;;;;;;;21.70;9.27;;;-0.10;98.60;;;;;;5007126;28;20130;-70
2022/01/28 04:21:07;;;;;;;13.40;7.10;;;-0.20;99.10;;;;;;5005503;28;20046;-71
2022/01/28 04:23:33;;;;;;;16.45;7.72;;;-0.20;98.60;;;;;;5009658;28;20040;-70
2022/01/28 04:25:59;;;;;;;14.67;7.50;;;-0.10;98.10;;;;;;5000383;28;20054;-70
2022/01/28 04:28:24;;;;;;;12.25;6.97;;;-0.20;98.10;;;;;;5003396;28;20471;-70
2022/01/28 04:30:50;;;;;;;12.02;5.82;;;-0.10;98.10;;;;;;5009138;28;20491;-70
2022/01/28 04:33:16;;;;;;;10.77;6.13;;;-0.20;97.40;;;;;;5008980;28;20038;-70
2022/01/28 04:35:42;;;;;;;14.77;7.72;;;-0.10;97.50;;;;;;5008632;28;20113;-70
2022/01/28 04:40:39;;;;;;;20.48;10.35;;;-0.30;98.00;;;;;;5009281;28;20383;-70
2022/01/28 04:45:52;;;;;;;15.82;7.78;;;-0.70;99.60;;;;;;5008447;28;20464;-70
2022/01/28 04:51:00;;;;;;;15.27;8.32;;;-0.60;99.40;;;;;;5005711;28;20034;-70
2022/01/28 04:53:56;;;;;;;12.70;6.50;;;-0.70;99.50;;;;;;5005894;28;20026;-70
2022/01/28 05:12:13;;;;;;;15.45;7.65;;;0.10;97.40;;;;;;5004902;28;20036;-70
2022/01/28 05:25:47;;;;;;;13.05;6.90;;;-0.50;98.20;;;;;;5005303;28;21127;-70
2022/01/28 05:27:54;;;;;;;15.48;6.75;;;-0.40;97.80;;;;;;5003665;28;20394;-70
2022/01/28 05:30:20;;;;;;;12.97;6.87;;;-0.50;97.70;;;;;;5005064;28;20026;-69
2022/01/28 05:32:45;;;;;;;10.38;6.15;;;-0.30;97.80;;;;;;5004365;28;20353;-70
2022/01/28 05:35:11;;;;;;;11.25;6.13;;;-0.50;97.60;;;;;;5005194;28;20427;-70
2022/01/28 05:37:37;;;;;;;13.10;6.40;;;-0.50;97.20;;;;;;5003461;28;20113;-69
2022/01/28 05:40:03;;;;;;;13.90;7.10;;;-0.40;97.20;;;;;;5005192;28;20141;-70
2022/01/28 05:42:29;;;;;;;18.55;9.23;;;-0.50;97.40;;;;;;5004702;28;20042;-70
2022/01/28 05:44:54;;;;;;;12.88;5.90;;;-0.40;97.70;;;;;;5004436;28;20044;-70
2022/01/28 05:47:21;;;;;;;12.87;7.07;;;-0.60;97.70;;;;;;5003688;28;20030;-70
2022/01/28 05:49:47;;;;;;;14.37;7.13;;;-0.60;97.50;;;;;;5005176;28;20033;-70
2022/01/28 05:52:13;;;;;;;16.02;7.50;;;-0.40;97.10;;;;;;5004442;28;20476;-70
2022/01/28 05:54:38;;;;;;;12.27;7.25;;;-0.40;97.00;;;;;;5004229;28;20021;-69
2022/01/28 05:57:04;;;;;;;9.43;5.97;;;-0.50;97.00;;;;;;5003947;28;20060;-70
2022/01/28 05:59:30;;;;;;;13.85;6.63;;;-0.50;97.30;;;;;;5002222;28;20116;-71
2022/01/28 06:01:56;;;;;;;11.47;6.37;;;-0.40;97.10;;;;;;5002417;28;20034;-70
2022/01/28 06:04:22;;;;;;;10.38;5.72;;;-0.20;96.40;;;;;;5003455;28;20437;-70
2022/01/28 06:06:48;;;;;;;10.73;5.28;;;-0.20;96.40;;;;;;5004355;28;20042;-70
2022/01/28 06:09:14;;;;;;;19.48;6.00;;;-0.30;97.00;;;;;;5004583;28;20034;-70
2022/01/28 06:11:39;;;;;;;11.63;6.35;;;-0.30;97.00;;;;;;5005597;28;20025;-70
2022/01/28 06:14:06;;;;;;;11.88;6.75;;;-0.10;96.50;;;;;;5004889;28;20042;-70
2022/01/28 06:16:32;;;;;;;11.25;6.32;;;0.10;96.00;;;;;;5003491;28;20072;-70
2022/01/28 06:18:58;;;;;;;13.40;5.93;;;0.10;96.10;;;;;;5004360;28;20061;-70
2022/01/28 06:21:23;;;;;;;10.23;5.28;;;0.10;95.80;;;;;;5002900;28;20037;-71
2022/01/28 06:23:51;;;;;;;11.48;6.80;;;0.00;95.90;;;;;;5004601;28;20030;-70
2022/01/28 06:26:17;;;;;;;10.63;5.40;;;0.00;95.70;;;;;;5002227;28;20186;-70
2022/01/28 06:28:43;;;;;;;13.40;6.47;;;0.00;95.90;;;;;;5004854;28;20555;-70
2022/01/28 06:31:10;;;;;;;9.82;4.78;;;0.10;96.10;;;;;;4999763;28;20025;-69
2022/01/28 06:33:36;;;;;;;10.95;5.57;;;0.00;96.40;;;;;;4997202;28;20022;-70
2022/01/28 06:36:03;;;;;;;10.55;5.47;;;-0.30;96.20;;;;;;4998710;28;20022;-72
2022/01/28 06:38:29;;;;;;;12.82;5.32;;;-0.20;96.20;;;;;;4997409;28;20037;-70
2022/01/28 06:40:55;;;;;;;10.68;5.53;;;-0.20;96.20;;;;;;5004933;28;20034;-70
2022/01/28 06:43:21;;;;;;;12.95;6.10;;;-0.10;96.00;;;;;;5003662;28;20117;-70
2022/01/28 06:45:47;;;;;;;12.10;5.47;;;-0.20;96.00;;;;;;5002504;28;20060;-70
2022/01/28 06:48:15;;;;;;;9.48;4.97;;;-0.20;95.90;;;;;;5004186;28;20407;-70
2022/01/28 06:50:42;;;;;;;8.82;4.70;;;-0.10;95.70;;;;;;5004060;28;20140;-71
2022/01/28 06:53:09;;;;;;;13.48;7.25;;;0.10;95.40;;;;;;5003335;28;20034;-70
2022/01/28 06:55:35;;;;;;;9.98;5.43;;;-0.20;96.20;;;;;;5004057;28;20022;-70
2022/01/28 06:58:01;;;;;;;11.52;5.10;;;-0.20;96.50;;;;;;5007313;28;20037;-70
2022/01/28 07:00:27;;;;;;;10.15;5.40;;;-0.20;96.50;;;;;;5009627;28;20057;-70
2022/01/28 07:02:53;;;;;;;10.35;6.30;;;-0.20;96.50;;;;;;5010181;28;20057;-70
2022/01/28 07:05:19;;;;;;;11.38;6.18;;;-0.40;97.00;;;;;;5011696;28;20137;-70
2022/01/28 07:07:46;;;;;;;11.20;6.03;;;-0.50;97.10;;;;;;5011440;28;20060;-71
2022/01/28 07:10:12;;;;;;;4.72;2.13;;;-0.50;97.60;;;;;;5012133;28;20148;-70
2022/01/28 07:12:38;;;;;;;5.82;2.42;;;0.40;95.50;;;;;;5011808;28;20142;-71
2022/01/28 07:15:04;;;;;;;7.97;3.22;;;1.10;93.50;;;;;;5008018;28;20602;-71
2022/01/28 07:17:30;;;;;;;7.30;2.67;;;1.40;92.80;;;;;;5007891;28;20058;-71
2022/01/28 07:19:55;;;;;;;6.22;3.55;;;1.80;92.00;;;;;;5008101;28;20030;-71
2022/01/28 07:22:21;;;;;;;3.70;1.65;;;1.60;92.60;;;;;;5007686;28;20924;-70
2022/01/28 07:24:46;;;;;;;4.70;1.70;;;2.00;92.10;;;;;;5007575;28;20061;-70
2022/01/28 07:27:19;;;;;;;6.70;1.85;;;3.10;90.20;;;;;;5006647;28;20108;-71
2022/01/28 07:29:47;;;;;;;3.90;1.70;;;4.00;87.40;;;;;;5007947;28;20391;-71
2022/01/28 07:32:13;;;;;;;5.05;1.63;;;4.90;84.40;;;;;;5007637;28;20064;-71
2022/01/28 07:34:39;;;;;;;4.03;1.55;;;4.90;83.90;;;;;;5007791;28;20484;-71
2022/01/28 07:37:04;;;;;;;2.95;1.58;;;4.90;83.40;;;;;;5007844;28;20030;-70
2022/01/28 07:39:30;;;;;;;6.70;2.47;;;4.60;84.40;;;;;;5007126;28;20037;-71
2022/01/28 07:41:57;;;;;;;7.13;3.13;;;4.60;83.90;;;;;;5007938;28;20140;-71
2022/01/28 07:44:22;;;;;;;4.35;1.60;;;4.60;84.40;;;;;;5007259;28;20037;-70
2022/01/28 07:46:48;;;;;;;3.42;1.67;;;4.60;83.90;;;;;;5007150;28;20129;-70
2022/01/28 07:49:14;;;;;;;3.67;1.55;;;4.90;83.40;;;;;;5006074;28;20030;-70
2022/01/28 07:51:40;;;;;;;4.90;1.42;;;5.00;82.30;;;;;;5007379;28;20034;-70
2022/01/28 07:54:06;;;;;;;5.03;1.88;;;5.60;80.90;;;;;;5007182;28;20046;-71
2022/01/28 07:56:32;;;;;;;4.13;2.08;;;6.00;80.10;;;;;;5007628;28;20037;-70
2022/01/28 07:58:57;;;;;;;3.83;1.88;;;6.00;79.80;;;;;;5007422;28;20084;-71
2022/01/28 08:01:23;;;;;;;4.95;1.33;;;5.90;78.80;;;;;;5007432;28;20622;-71
2022/01/28 08:03:49;;;;;;;4.72;1.38;;;6.10;78.10;;;;;;5005935;28;20038;-70
2022/01/28 08:06:14;;;;;;;2.90;1.42;;;6.00;78.70;;;;;;5006838;28;20137;-70
2022/01/28 08:08:40;;;;;;;3.13;1.10;;;5.80;79.90;;;;;;5006605;28;20112;-70
2022/01/28 08:11:06;;;;;;;4.57;1.27;;;5.50;80.40;;;;;;5006627;28;20034;-70
2022/01/28 08:13:31;;;;;;;2.78;1.10;;;5.40;80.30;;;;;;5007360;28;20042;-70
2022/01/28 08:15:57;;;;;;;4.32;1.73;;;5.40;80.40;;;;;;5006579;28;20041;-70
2022/01/28 08:18:23;;;;;;;5.18;1.90;;;5.00;81.40;;;;;;5006676;28;20037;-72
2022/01/28 08:20:48;;;;;;;6.28;1.98;;;5.10;81.50;;;;;;5006449;28;20586;-72
2022/01/28 08:23:14;;;;;;;10.98;4.45;;;5.50;79.60;;;;;;5006665;28;20116;-74
2022/01/28 08:25:40;;;;;;;5.15;2.33;;;4.90;82.80;;;;;;5007832;28;20487;-79
2022/01/28 08:28:06;;;;;;;5.32;1.60;;;3.90;85.00;;;;;;5007242;28;20054;-74
2022/01/28 08:30:33;;;;;;;2.35;0.80;;;5.10;78.40;;;;;;5006306;28;20686;-74
2022/01/28 08:32:59;;;;;;;9.40;4.78;;;6.20;75.10;;;;;;5006176;28;20030;-75
2022/01/28 08:35:30;;;;;;;5.03;1.70;;;5.20;80.80;;;;;;5006938;28;20034;-74
2022/01/28 08:37:59;;;;;;;4.68;1.38;;;5.90;75.40;;;;;;5006130;28;20072;-74
2022/01/28 08:40:27;;;;;;;3.95;0.98;;;6.20;74.10;;;;;;5003222;28;20030;-74
2022/01/28 08:42:54;;;;;;;5.03;1.40;;;6.50;73.10;;;;;;5005397;28;20113;-74
2022/01/28 08:45:21;;;;;;;2.83;1.45;;;6.30;73.80;;;;;;5005857;28;20184;-74
2022/01/28 08:47:47;;;;;;;2.42;1.30;;;6.40;72.60;;;;;;5005189;28;20042;-75
2022/01/28 08:50:12;;;;;;;3.22;1.40;;;6.60;71.20;;;;;;5006246;28;20925;-75
2022/01/28 08:52:38;;;;;;;3.22;1.70;;;6.60;71.50;;;;;;5004874;28;20037;-74
2022/01/28 08:55:05;;;;;;;7.45;3.00;;;6.20;73.70;;;;;;5005717;28;20353;-75
2022/01/28 08:57:31;;;;;;;9.80;5.25;;;5.50;76.20;;;;;;5005384;28;20083;-74
2022/01/28 08:59:57;;;;;;;7.88;4.38;;;5.30;76.80;;;;;;5003720;28;20101;-74
2022/01/28 09:02:22;;;;;;;4.50;2.13;;;4.80;79.00;;;;;;5004443;28;20065;-74
2022/01/28 09:04:49;;;;;;;5.22;1.40;;;4.60;80.00;;;;;;5005886;28;20048;-75
2022/01/28 09:07:18;;;;;;;5.63;2.33;;;5.00;76.90;;;;;;5007786;28;20080;-74
2022/01/28 09:09:50;;;;;;;2.83;1.17;;;5.20;75.70;;;;;;4998572;28;20093;-75
2022/01/28 09:14:53;;;;;;;4.05;1.63;;;5.50;74.90;;;;;;5005832;28;20029;-74
2022/01/28 09:17:20;;;;;;;4.20;1.55;;;5.50;75.40;;;;;;5005688;28;20065;-74
2022/01/28 09:19:46;;;;;;;3.75;1.60;;;5.00;77.20;;;;;;5005532;28;20388;-74
2022/01/28 09:22:13;;;;;;;4.32;2.22;;;5.10;76.70;;;;;;5005259;28;20034;-74
2022/01/28 09:24:38;;;;;;;3.60;1.70;;;5.10;75.90;;;;;;5005054;28;20053;-74
2022/01/28 09:27:05;;;;;;;6.43;2.53;;;5.20;75.50;;;;;;5005834;28;20399;-75
2022/01/28 09:29:30;;;;;;;5.05;2.30;;;4.80;78.70;;;;;;5005092;28;20482;-74
2022/01/28 09:31:56;;;;;;;5.05;1.40;;;4.80;76.50;;;;;;5005568;28;20040;-74
2022/01/28 09:34:22;;;;;;;4.20;1.05;;;5.40;73.30;;;;;;5005050;28;20030;-75
2022/01/28 09:36:48;;;;;;;6.20;1.80;;;6.50;65.60;;;;;;5005308;28;20124;-74
2022/01/28 09:39:13;;;;;;;5.38;1.80;;;7.00;66.90;;;;;;5005376;28;20542;-75
2022/01/28 09:41:40;;;;;;;4.78;2.13;;;6.40;71.20;;;;;;5005082;28;20096;-74
2022/01/28 09:44:09;;;;;;;2.92;1.38;;;6.60;69.10;;;;;;5004620;28;20487;-74
2022/01/28 09:46:36;;;;;;;2.90;1.05;;;6.80;65.10;;;;;;5004104;28;20038;-74
2022/01/28 09:49:02;;;;;;;2.00;0.32;;;7.10;63.10;;;;;;5005348;28;20112;-74
2022/01/28 09:51:28;;;;;;;0.80;0.20;;;7.70;59.40;;;;;;5003087;28;20109;-74
2022/01/28 09:53:53;;;;;;;12.82;2.80;;;8.80;54.00;;;;;;4997300;28;20038;-73
2022/01/28 09:56:19;;;;;;;4.07;2.00;;;7.60;66.90;;;;;;5005650;28;20044;-74
2022/01/28 09:58:45;;;;;;;2.75;1.50;;;7.20;65.80;;;;;;5005091;28;20041;-73
2022/01/28 10:01:10;;;;;;;4.00;1.50;;;7.30;63.40;;;;;;5004737;28;20124;-73
2022/01/28 10:03:36;;;;;;;4.63;1.45;;;7.00;65.20;;;;;;5003774;28;20365;-74
2022/01/28 10:06:02;;;;;;;2.40;1.10;;;7.80;61.00;;;;;;5004782;28;20079;-73
2022/01/28 10:08:28;;;;;;;2.42;1.05;;;8.10;58.70;;;;;;5003554;28;20444;-74
2022/01/28 10:10:59;;;;;;;0.80;0.45;;;7.70;62.30;;;;;;5005497;28;20105;-73
2022/01/28 10:13:32;;;;;;;1.30;0.52;;;8.70;54.00;;;;;;5002910;28;20642;-73
2022/01/28 10:16:20;;;;;;;0.63;0.28;;;8.80;54.50;;;;;;5003473;28;20034;-74
2022/01/28 10:19:00;;;;;;;4.90;0.70;;;9.00;52.10;;;;;;5004356;28;20125;-74
2022/01/28 10:21:30;;;;;;;2.03;0.90;;;9.30;52.40;;;;;;5003391;28;20030;-73
2022/01/28 10:24:01;;;;;;;3.05;1.20;;;9.10;57.10;;;;;;5006206;28;20055;-73
2022/01/28 10:26:52;;;;;;;2.10;1.25;;;8.80;59.60;;;;;;5004178;28;20052;-73
2022/01/28 10:29:33;;;;;;;1.73;0.65;;;9.10;54.60;;;;;;5004031;28;20100;-73
2022/01/28 10:32:05;;;;;;;1.38;0.30;;;9.00;53.90;;;;;;5003711;28;20044;-74
2022/01/28 10:34:44;;;;;;;0.98;0.35;;;9.50;51.10;;;;;;5003999;28;20040;-73
2022/01/28 10:37:25;;;;;;;2.38;0.28;;;9.60;52.80;;;;;;5004271;28;20036;-75
2022/01/28 10:40:04;;;;;;;0.80;0.38;;;10.00;49.30;;;;;;5003838;28;20046;-73
2022/01/28 10:42:36;;;;;;;1.33;0.60;;;9.90;51.50;;;;;;5004142;28;20622;-73
2022/01/28 10:45:11;;;;;;;1.35;0.43;;;9.60;53.10;;;;;;5003982;28;20046;-74
2022/01/28 10:47:48;;;;;;;3.58;0.80;;;9.70;50.40;;;;;;5004291;28;20184;-73
2022/01/28 10:50:38;;;;;;;1.98;0.95;;;9.70;50.90;;;;;;5003610;28;20113;-73
2022/01/28 10:53:07;;;;;;;1.10;0.50;;;9.70;52.50;;;;;;5003757;28;20030;-73
2022/01/28 10:55:37;;;;;;;1.42;0.63;;;10.20;48.90;;;;;;5007347;28;20103;-73
2022/01/28 10:58:04;;;;;;;2.63;1.02;;;10.30;51.20;;;;;;5003798;28;20051;-73
2022/01/28 11:00:36;;;;;;;2.00;0.80;;;10.10;52.70;;;;;;5002946;28;20026;-73
2022/01/28 11:03:04;;;;;;;1.50;0.75;;;9.90;54.50;;;;;;5003011;28;20049;-73
2022/01/28 11:05:32;;;;;;;3.15;1.65;;;9.90;52.40;;;;;;5004529;28;20116;-73
2022/01/28 11:07:59;;;;;;;5.95;1.20;;;10.20;52.40;;;;;;5003446;28;20586;-73
2022/01/28 11:10:25;;;;;;;3.25;1.00;;;10.20;50.70;;;;;;5003659;28;20427;-73
2022/01/28 11:12:52;;;;;;;1.55;0.60;;;10.40;49.30;;;;;;5003756;28;20057;-73
2022/01/28 11:15:18;;;;;;;0.88;0.35;;;10.80;49.30;;;;;;4999739;28;20053;-73
2022/01/28 11:17:44;;;;;;;4.00;0.30;;;11.10;47.70;;;;;;5003304;28;20487;-73
2022/01/28 11:20:12;;;;;;;5.32;0.43;;;11.20;46.80;;;;;;5004220;28;20030;-74
2022/01/28 11:22:48;;;;;;;1.67;0.93;;;10.90;47.50;;;;;;5003909;28;20100;-74
2022/01/28 11:25:35;;;;;;;2.05;0.10;;;11.00;46.00;;;;;;5002882;28;20496;-73
2022/01/28 11:28:08;;;;;;;2.08;0.20;;;11.20;45.40;;;;;;5002408;28;20033;-73
2022/01/28 11:30:34;;;;;;;1.15;0.50;;;11.30;47.00;;;;;;5003808;28;20144;-74
2022/01/28 11:33:03;;;;;;;1.05;0.68;;;11.20;47.70;;;;;;5003764;28;20039;-73
2022/01/28 11:35:40;;;;;;;1.13;0.38;;;10.90;49.30;;;;;;5004413;28;20033;-73
2022/01/28 11:38:25;;;;;;;2.50;0.50;;;11.10;49.30;;;;;;5003857;28;20041;-74
2022/01/28 11:40:52;;;;;;;0.63;0.15;;;10.90;46.90;;;;;;5003299;28;20235;-73
2022/01/28 11:43:32;;;;;;;0.47;0.20;;;10.90;45.40;;;;;;5003341;28;20037;-74
2022/01/28 11:46:31;;;;;;;1.23;0.40;;;11.10;46.50;;;;;;5005919;28;20099;-73
2022/01/28 11:48:57;;;;;;;2.40;0.98;;;11.50;48.10;;;;;;5007294;28;20026;-73
2022/01/28 11:51:32;;;;;;;3.28;0.60;;;11.70;47.80;;;;;;5007566;28;20034;-73
2022/01/28 11:54:04;;;;;;;0.40;0.10;;;11.30;47.00;;;;;;5006605;28;20610;-73
2022/01/28 11:56:30;;;;;;;7.70;0.82;;;11.20;47.30;;;;;;5003900;28;20034;-74
2022/01/28 11:59:02;;;;;;;0.98;0.47;;;11.50;47.90;;;;;;5000341;28;20085;-74
2022/01/28 12:01:40;;;;;;;2.38;0.52;;;11.50;47.90;;;;;;5004438;28;20026;-73
2022/01/28 12:04:24;;;;;;;5.78;0.57;;;11.60;48.50;;;;;;5006630;28;20034;-73
2022/01/28 12:07:00;;;;;;;1.27;0.40;;;11.60;47.50;;;;;;5006049;28;20042;-73
2022/01/28 12:09:26;;;;;;;2.55;0.52;;;12.00;44.90;;;;;;5007893;28;20030;-74
2022/01/28 12:11:52;;;;;;;0.95;0.35;;;12.00;46.80;;;;;;5010139;28;20026;-73
2022/01/28 12:14:39;;;;;;;2.47;0.20;;;11.90;46.10;;;;;;5009827;28;20026;-73
2022/01/28 12:17:29;;;;;;;1.17;0.30;;;11.80;45.50;;;;;;5003020;28;20030;-73
2022/01/28 12:20:19;;;;;;;5.95;0.40;;;11.90;44.90;;;;;;5009708;28;20105;-74
2022/01/28 12:23:01;;;;;;;3.53;2.17;;;11.80;45.30;;;;;;5009263;28;20032;-73
2022/01/28 12:25:35;;;;;;;0.80;0.50;;;12.00;45.60;;;;;;5009833;28;20056;-73
2022/01/28 12:28:14;;;;;;;0.70;0.38;;;12.10;44.90;;;;;;5009447;28;20061;-73
2022/01/28 12:30:43;;;;;;;0.40;0.20;;;12.00;46.40;;;;;;5009761;28;20037;-73
2022/01/28 12:33:12;;;;;;;5.50;0.52;;;12.40;43.80;;;;;;5009700;28;20091;-74
2022/01/28 12:35:39;;;;;;;3.78;0.60;;;12.00;44.30;;;;;;5009350;28;20040;-73
2022/01/28 12:38:06;;;;;;;0.45;0.20;;;12.00;44.10;;;;;;5009382;28;20088;-74
2022/01/28 12:40:42;;;;;;;1.17;0.30;;;12.10;43.00;;;;;;5009647;28;20030;-73
2022/01/28 12:43:08;;;;;;;0.73;0.10;;;12.20;43.70;;;;;;5007369;28;20034;-73
2022/01/28 12:45:35;;;;;;;1.55;0.20;;;12.20;43.40;;;;;;5005767;28;20423;-73
2022/01/28 12:48:00;;;;;;;0.57;0.10;;;12.30;44.70;;;;;;5006285;28;20037;-72
2022/01/28 12:50:32;;;;;;;1.33;0.45;;;12.20;43.00;;;;;;5006097;28;20475;-73
2022/01/28 12:52:58;;;;;;;0.25;0.10;;;12.40;43.40;;;;;;5004382;28;20648;-73
2022/01/28 12:55:35;;;;;;;0.73;0.25;;;12.30;42.90;;;;;;5001448;28;20034;-72
2022/01/28 12:58:01;;;;;;;0.63;0.10;;;12.20;44.70;;;;;;5000262;28;20036;-72
2022/01/28 13:00:26;;;;;;;0.68;0.20;;;12.00;43.00;;;;;;5005506;28;20025;-73
2022/01/28 13:02:52;;;;;;;1.08;0.30;;;12.00;42.80;;;;;;4997216;28;20121;-72
2022/01/28 13:05:33;;;;;;;0.10;0.10;;;12.00;43.00;;;;;;5005676;28;20053;-72
2022/01/28 13:10:44;;;;;;;0.22;0.15;;;12.20;43.70;;;;;;5005031;28;20087;-73
2022/01/28 13:13:11;;;;;;;1.83;0.77;;;12.10;43.60;;;;;;5005865;28;20045;-72
2022/01/28 13:15:39;;;;;;;1.40;0.20;;;12.20;44.00;;;;;;5005278;28;20037;-72
2022/01/28 13:18:06;;;;;;;2.20;0.15;;;12.20;42.70;;;;;;5005447;28;20443;-73
2022/01/28 13:20:40;;;;;;;1.23;0.30;;;12.10;44.20;;;;;;5005153;28;20091;-73
2022/01/28 13:23:10;;;;;;;1.17;0.40;;;12.20;44.80;;;;;;5005235;28;20034;-73
2022/01/28 13:25:37;;;;;;;1.83;0.20;;;12.30;43.80;;;;;;5005418;28;20177;-73
2022/01/28 13:28:14;;;;;;;1.58;0.50;;;12.40;43.50;;;;;;5004609;28;20041;-73
2022/01/28 13:30:41;;;;;;;2.10;0.30;;;12.30;43.10;;;;;;5001079;28;20048;-73
2022/01/28 13:33:10;;;;;;;0.25;0.10;;;12.30;43.50;;;;;;5005363;28;20030;-73
2022/01/28 13:35:37;;;;;;;1.13;0.28;;;12.20;43.50;;;;;;5005127;28;20034;-73
2022/01/28 13:38:23;;;;;;;0.05;0.00;;;12.10;43.00;;;;;;5003581;28;20411;-74
2022/01/28 13:40:49;;;;;;;1.55;0.20;;;12.20;42.90;;;;;;4994031;28;20061;-74
2022/01/28 13:43:20;;;;;;;0.90;0.10;;;12.00;44.20;;;;;;5003163;28;20480;-73
2022/01/28 13:45:55;;;;;;;0.35;0.10;;;12.00;43.40;;;;;;5006065;28;20045;-73
2022/01/28 13:48:37;;;;;;;2.72;0.47;;;12.00;44.30;;;;;;5000955;28;20025;-73
2022/01/28 13:51:09;;;;;;;1.05;0.40;;;12.10;44.00;;;;;;5005307;28;20475;-74
2022/01/28 13:56:31;;;;;;;1.13;0.20;;;12.10;43.80;;;;;;5001789;28;20030;-74
2022/01/28 13:58:56;;;;;;;0.50;0.20;;;12.10;43.10;;;;;;5000893;28;20051;-74
2022/01/28 14:01:27;;;;;;;0.60;0.10;;;12.20;42.60;;;;;;5004628;28;20480;-74
2022/01/28 14:04:01;;;;;;;2.90;0.30;;;12.00;43.20;;;;;;5000160;28;20038;-74
2022/01/28 14:06:29;;;;;;;1.73;0.68;;;12.10;43.50;;;;;;5003999;28;20042;-74
2022/01/28 14:09:11;;;;;;;0.32;0.13;;;12.20;44.70;;;;;;4997121;28;20064;-74
2022/01/28 14:11:43;;;;;;;2.72;0.57;;;12.30;44.00;;;;;;5004536;28;20116;-74
2022/01/28 14:14:29;;;;;;;4.38;0.32;;;12.20;45.10;;;;;;5004236;28;20034;-74
2022/01/28 14:16:59;;;;;;;0.03;0.00;;;12.10;43.60;;;;;;5003036;28;20033;-75
2022/01/28 14:19:27;;;;;;;0.80;0.17;;;11.90;43.70;;;;;;5004083;28;20045;-75
2022/01/28 14:21:53;;;;;;;0.60;0.10;;;12.00;43.20;;;;;;5003139;28;20034;-75
2022/01/28 14:24:26;;;;;;;0.15;0.00;;;12.00;44.30;;;;;;5003186;28;20724;-74
2022/01/28 14:32:06;;;;;;;3.22;0.30;;;11.90;44.20;;;;;;5006504;28;20042;-75